sensor_id;sensor_type;location;lat;lon;timestamp;P1;durP1;ratioP1;P2;durP2;ratioP2
57465;SDS011;67033;44.984;20.068;2023-03-14T00:00:38;21.05;;;11.63;;
57465;SDS011;67033;44.984;20.068;2023-03-14T00:03:04;23.88;;;12.40;;
57465;SDS011;67033;44.984;20.068;2023-03-14T00:05:30;19.77;;;11.57;;
57465;SDS011;67033;44.984;20.068;2023-03-14T00:07:56;21.92;;;12.43;;
57465;SDS011;67033;44.984;20.068;2023-03-14T00:10:22;26.65;;;15.00;;
57465;SDS011;67033;44.984;20.068;2023-03-14T00:12:49;21.42;;;12.73;;
57465;SDS011;67033;44.984;20.068;2023-03-14T00:15:15;25.67;;;12.85;;
57465;SDS011;67033;44.984;20.068;2023-03-14T00:17:42;22.30;;;12.15;;
57465;SDS011;67033;44.984;20.068;2023-03-14T00:20:09;22.83;;;13.13;;
57465;SDS011;67033;44.984;20.068;2023-03-14T00:22:39;19.83;;;12.23;;
57465;SDS011;67033;44.984;20.068;2023-03-14T00:25:07;19.38;;;10.75;;
57465;SDS011;67033;44.984;20.068;2023-03-14T00:27:33;18.52;;;10.55;;
57465;SDS011;67033;44.984;20.068;2023-03-14T00:29:59;18.38;;;8.80;;
57465;SDS011;67033;44.984;20.068;2023-03-14T00:32:26;19.02;;;9.30;;
57465;SDS011;67033;44.984;20.068;2023-03-14T00:34:52;19.45;;;10.52;;
57465;SDS011;67033;44.984;20.068;2023-03-14T00:37:18;17.65;;;9.80;;
57465;SDS011;67033;44.984;20.068;2023-03-14T00:39:44;16.42;;;10.07;;
57465;SDS011;67033;44.984;20.068;2023-03-14T00:42:11;18.42;;;9.65;;
57465;SDS011;67033;44.984;20.068;2023-03-14T00:44:37;14.52;;;8.85;;
57465;SDS011;67033;44.984;20.068;2023-03-14T00:47:03;14.57;;;8.93;;
57465;SDS011;67033;44.984;20.068;2023-03-14T00:49:29;14.95;;;9.00;;
57465;SDS011;67033;44.984;20.068;2023-03-14T00:51:56;13.30;;;8.85;;
57465;SDS011;67033;44.984;20.068;2023-03-14T00:54:22;14.57;;;8.23;;
57465;SDS011;67033;44.984;20.068;2023-03-14T00:56:49;15.43;;;9.15;;
57465;SDS011;67033;44.984;20.068;2023-03-14T00:59:15;14.15;;;8.70;;
57465;SDS011;67033;44.984;20.068;2023-03-14T01:01:42;15.90;;;9.32;;
57465;SDS011;67033;44.984;20.068;2023-03-14T01:04:08;15.88;;;9.30;;
57465;SDS011;67033;44.984;20.068;2023-03-14T01:06:34;17.33;;;9.65;;
57465;SDS011;67033;44.984;20.068;2023-03-14T01:09:01;17.00;;;8.68;;
57465;SDS011;67033;44.984;20.068;2023-03-14T01:11:32;15.38;;;8.88;;
57465;SDS011;67033;44.984;20.068;2023-03-14T01:13:58;14.45;;;8.48;;
57465;SDS011;67033;44.984;20.068;2023-03-14T01:16:26;14.70;;;7.85;;
57465;SDS011;67033;44.984;20.068;2023-03-14T01:18:52;12.68;;;7.63;;
57465;SDS011;67033;44.984;20.068;2023-03-14T01:21:26;16.60;;;8.60;;
57465;SDS011;67033;44.984;20.068;2023-03-14T01:23:53;13.02;;;7.60;;
57465;SDS011;67033;44.984;20.068;2023-03-14T01:26:25;12.30;;;7.72;;
57465;SDS011;67033;44.984;20.068;2023-03-14T01:28:52;15.32;;;8.27;;
57465;SDS011;67033;44.984;20.068;2023-03-14T01:31:19;15.98;;;8.20;;
57465;SDS011;67033;44.984;20.068;2023-03-14T01:33:45;13.27;;;8.68;;
57465;SDS011;67033;44.984;20.068;2023-03-14T01:36:12;16.42;;;8.63;;
57465;SDS011;67033;44.984;20.068;2023-03-14T01:38:38;14.63;;;8.52;;
57465;SDS011;67033;44.984;20.068;2023-03-14T01:41:06;15.82;;;8.80;;
57465;SDS011;67033;44.984;20.068;2023-03-14T01:43:32;15.48;;;8.10;;
57465;SDS011;67033;44.984;20.068;2023-03-14T01:48:54;13.60;;;8.00;;
57465;SDS011;67033;44.984;20.068;2023-03-14T01:51:37;14.18;;;8.00;;
57465;SDS011;67033;44.984;20.068;2023-03-14T01:54:10;13.02;;;8.13;;
57465;SDS011;67033;44.984;20.068;2023-03-14T01:56:37;12.90;;;7.90;;
57465;SDS011;67033;44.984;20.068;2023-03-14T01:59:06;13.02;;;7.78;;
57465;SDS011;67033;44.984;20.068;2023-03-14T02:01:32;14.38;;;8.13;;
57465;SDS011;67033;44.984;20.068;2023-03-14T02:03:59;11.93;;;7.35;;
57465;SDS011;67033;44.984;20.068;2023-03-14T02:06:29;13.27;;;7.70;;
57465;SDS011;67033;44.984;20.068;2023-03-14T02:08:56;14.35;;;8.60;;
57465;SDS011;67033;44.984;20.068;2023-03-14T02:11:23;13.02;;;8.43;;
57465;SDS011;67033;44.984;20.068;2023-03-14T02:13:52;13.15;;;7.63;;
57465;SDS011;67033;44.984;20.068;2023-03-14T02:16:18;12.93;;;7.93;;
57465;SDS011;67033;44.984;20.068;2023-03-14T02:18:45;17.08;;;7.65;;
57465;SDS011;67033;44.984;20.068;2023-03-14T02:26:30;15.98;;;7.65;;
57465;SDS011;67033;44.984;20.068;2023-03-14T02:28:57;14.13;;;7.90;;
57465;SDS011;67033;44.984;20.068;2023-03-14T02:31:24;17.08;;;8.13;;
57465;SDS011;67033;44.984;20.068;2023-03-14T02:33:50;13.93;;;8.43;;
57465;SDS011;67033;44.984;20.068;2023-03-14T02:36:16;13.80;;;7.65;;
57465;SDS011;67033;44.984;20.068;2023-03-14T02:41:14;13.57;;;8.15;;
57465;SDS011;67033;44.984;20.068;2023-03-14T02:43:40;12.98;;;7.60;;
57465;SDS011;67033;44.984;20.068;2023-03-14T02:46:07;10.10;;;7.13;;
57465;SDS011;67033;44.984;20.068;2023-03-14T02:48:45;14.75;;;8.05;;
57465;SDS011;67033;44.984;20.068;2023-03-14T02:51:13;17.13;;;7.72;;
57465;SDS011;67033;44.984;20.068;2023-03-14T02:53:40;13.98;;;7.72;;
57465;SDS011;67033;44.984;20.068;2023-03-14T02:56:08;13.68;;;7.85;;
57465;SDS011;67033;44.984;20.068;2023-03-14T02:58:34;13.05;;;7.85;;
57465;SDS011;67033;44.984;20.068;2023-03-14T03:01:01;11.27;;;7.07;;
57465;SDS011;67033;44.984;20.068;2023-03-14T03:03:27;13.23;;;7.85;;
57465;SDS011;67033;44.984;20.068;2023-03-14T03:05:54;13.13;;;7.32;;
57465;SDS011;67033;44.984;20.068;2023-03-14T03:08:21;14.05;;;8.13;;
57465;SDS011;67033;44.984;20.068;2023-03-14T03:10:48;12.48;;;7.63;;
57465;SDS011;67033;44.984;20.068;2023-03-14T03:13:15;12.75;;;7.47;;
57465;SDS011;67033;44.984;20.068;2023-03-14T03:15:41;12.15;;;8.30;;
57465;SDS011;67033;44.984;20.068;2023-03-14T03:18:07;12.32;;;7.82;;
57465;SDS011;67033;44.984;20.068;2023-03-14T03:20:33;12.63;;;7.88;;
57465;SDS011;67033;44.984;20.068;2023-03-14T03:23:00;14.40;;;7.70;;
57465;SDS011;67033;44.984;20.068;2023-03-14T03:25:26;16.67;;;7.45;;
57465;SDS011;67033;44.984;20.068;2023-03-14T03:27:52;13.32;;;7.97;;
57465;SDS011;67033;44.984;20.068;2023-03-14T03:30:19;15.90;;;9.00;;
57465;SDS011;67033;44.984;20.068;2023-03-14T03:32:45;14.52;;;8.98;;
57465;SDS011;67033;44.984;20.068;2023-03-14T03:35:12;17.75;;;9.23;;
57465;SDS011;67033;44.984;20.068;2023-03-14T03:37:38;14.98;;;7.88;;
57465;SDS011;67033;44.984;20.068;2023-03-14T03:40:04;13.25;;;8.25;;
57465;SDS011;67033;44.984;20.068;2023-03-14T03:42:31;13.32;;;7.80;;
57465;SDS011;67033;44.984;20.068;2023-03-14T03:44:58;14.75;;;8.45;;
57465;SDS011;67033;44.984;20.068;2023-03-14T03:47:24;14.13;;;7.57;;
57465;SDS011;67033;44.984;20.068;2023-03-14T03:49:51;11.60;;;7.85;;
57465;SDS011;67033;44.984;20.068;2023-03-14T03:52:17;13.75;;;7.50;;
57465;SDS011;67033;44.984;20.068;2023-03-14T03:54:43;10.95;;;7.25;;
57465;SDS011;67033;44.984;20.068;2023-03-14T03:57:09;12.38;;;7.15;;
57465;SDS011;67033;44.984;20.068;2023-03-14T03:59:35;12.40;;;7.40;;
57465;SDS011;67033;44.984;20.068;2023-03-14T04:02:04;15.43;;;7.53;;
57465;SDS011;67033;44.984;20.068;2023-03-14T04:04:30;11.23;;;7.05;;
57465;SDS011;67033;44.984;20.068;2023-03-14T04:06:56;15.88;;;7.78;;
57465;SDS011;67033;44.984;20.068;2023-03-14T04:09:22;13.40;;;7.72;;
57465;SDS011;67033;44.984;20.068;2023-03-14T04:11:48;15.52;;;8.40;;
57465;SDS011;67033;44.984;20.068;2023-03-14T04:14:15;11.05;;;7.10;;
57465;SDS011;67033;44.984;20.068;2023-03-14T04:16:41;11.60;;;6.40;;
57465;SDS011;67033;44.984;20.068;2023-03-14T04:19:07;10.95;;;6.47;;
57465;SDS011;67033;44.984;20.068;2023-03-14T04:21:33;11.43;;;6.82;;
57465;SDS011;67033;44.984;20.068;2023-03-14T04:23:59;10.10;;;6.55;;
57465;SDS011;67033;44.984;20.068;2023-03-14T04:26:26;11.20;;;7.15;;
57465;SDS011;67033;44.984;20.068;2023-03-14T04:28:52;13.15;;;7.35;;
57465;SDS011;67033;44.984;20.068;2023-03-14T04:31:19;12.98;;;7.60;;
57465;SDS011;67033;44.984;20.068;2023-03-14T04:33:46;11.90;;;7.20;;
57465;SDS011;67033;44.984;20.068;2023-03-14T04:36:13;10.90;;;6.65;;
57465;SDS011;67033;44.984;20.068;2023-03-14T04:38:39;11.20;;;7.78;;
57465;SDS011;67033;44.984;20.068;2023-03-14T04:41:06;8.95;;;6.03;;
57465;SDS011;67033;44.984;20.068;2023-03-14T04:43:32;9.98;;;6.50;;
57465;SDS011;67033;44.984;20.068;2023-03-14T04:45:59;13.00;;;7.93;;
57465;SDS011;67033;44.984;20.068;2023-03-14T04:48:26;19.23;;;8.57;;
57465;SDS011;67033;44.984;20.068;2023-03-14T04:50:52;13.32;;;7.43;;
57465;SDS011;67033;44.984;20.068;2023-03-14T04:53:19;10.30;;;6.68;;
57465;SDS011;67033;44.984;20.068;2023-03-14T04:55:51;12.38;;;6.97;;
57465;SDS011;67033;44.984;20.068;2023-03-14T04:58:18;11.52;;;6.40;;
57465;SDS011;67033;44.984;20.068;2023-03-14T05:00:45;9.85;;;6.38;;
57465;SDS011;67033;44.984;20.068;2023-03-14T05:03:12;13.07;;;7.38;;
57465;SDS011;67033;44.984;20.068;2023-03-14T05:05:38;16.77;;;8.07;;
57465;SDS011;67033;44.984;20.068;2023-03-14T05:08:05;14.35;;;7.75;;
57465;SDS011;67033;44.984;20.068;2023-03-14T05:10:31;14.07;;;6.95;;
57465;SDS011;67033;44.984;20.068;2023-03-14T05:12:57;14.63;;;6.75;;
57465;SDS011;67033;44.984;20.068;2023-03-14T05:15:23;12.60;;;7.22;;
57465;SDS011;67033;44.984;20.068;2023-03-14T05:17:50;11.05;;;7.60;;
57465;SDS011;67033;44.984;20.068;2023-03-14T05:20:16;13.35;;;7.35;;
57465;SDS011;67033;44.984;20.068;2023-03-14T05:22:42;10.68;;;7.05;;
57465;SDS011;67033;44.984;20.068;2023-03-14T05:25:09;9.65;;;6.65;;
57465;SDS011;67033;44.984;20.068;2023-03-14T05:27:35;11.65;;;6.68;;
57465;SDS011;67033;44.984;20.068;2023-03-14T05:30:02;11.48;;;7.03;;
57465;SDS011;67033;44.984;20.068;2023-03-14T05:32:28;11.05;;;6.55;;
57465;SDS011;67033;44.984;20.068;2023-03-14T05:34:55;10.63;;;6.50;;
57465;SDS011;67033;44.984;20.068;2023-03-14T05:37:24;16.70;;;6.83;;
57465;SDS011;67033;44.984;20.068;2023-03-14T05:39:50;11.88;;;6.35;;
57465;SDS011;67033;44.984;20.068;2023-03-14T05:42:16;14.93;;;7.07;;
57465;SDS011;67033;44.984;20.068;2023-03-14T05:44:43;18.55;;;8.82;;
57465;SDS011;67033;44.984;20.068;2023-03-14T05:47:09;11.77;;;7.43;;
57465;SDS011;67033;44.984;20.068;2023-03-14T05:49:35;15.60;;;6.95;;
57465;SDS011;67033;44.984;20.068;2023-03-14T05:52:01;11.68;;;6.32;;
57465;SDS011;67033;44.984;20.068;2023-03-14T05:54:28;14.90;;;7.25;;
57465;SDS011;67033;44.984;20.068;2023-03-14T05:56:54;18.95;;;8.40;;
57465;SDS011;67033;44.984;20.068;2023-03-14T05:59:20;23.63;;;8.30;;
57465;SDS011;67033;44.984;20.068;2023-03-14T06:01:46;19.95;;;7.80;;
57465;SDS011;67033;44.984;20.068;2023-03-14T06:04:12;17.92;;;7.47;;
57465;SDS011;67033;44.984;20.068;2023-03-14T06:06:39;18.13;;;7.10;;
57465;SDS011;67033;44.984;20.068;2023-03-14T06:09:05;16.73;;;7.38;;
57465;SDS011;67033;44.984;20.068;2023-03-14T06:11:31;12.60;;;7.15;;
57465;SDS011;67033;44.984;20.068;2023-03-14T06:13:57;14.23;;;6.78;;
57465;SDS011;67033;44.984;20.068;2023-03-14T06:16:23;22.48;;;7.88;;
57465;SDS011;67033;44.984;20.068;2023-03-14T06:18:49;16.67;;;7.55;;
57465;SDS011;67033;44.984;20.068;2023-03-14T06:21:15;25.65;;;7.95;;
57465;SDS011;67033;44.984;20.068;2023-03-14T06:23:41;16.63;;;7.18;;
57465;SDS011;67033;44.984;20.068;2023-03-14T06:26:07;17.20;;;7.05;;
57465;SDS011;67033;44.984;20.068;2023-03-14T06:28:33;11.65;;;6.65;;
57465;SDS011;67033;44.984;20.068;2023-03-14T06:31:00;16.52;;;7.47;;
57465;SDS011;67033;44.984;20.068;2023-03-14T06:33:26;17.83;;;6.93;;
57465;SDS011;67033;44.984;20.068;2023-03-14T06:35:52;18.65;;;7.47;;
57465;SDS011;67033;44.984;20.068;2023-03-14T06:38:19;16.15;;;7.68;;
57465;SDS011;67033;44.984;20.068;2023-03-14T06:40:45;30.65;;;8.18;;
57465;SDS011;67033;44.984;20.068;2023-03-14T06:43:11;14.57;;;6.82;;
57465;SDS011;67033;44.984;20.068;2023-03-14T06:45:37;15.98;;;7.47;;
57465;SDS011;67033;44.984;20.068;2023-03-14T06:48:03;16.77;;;7.40;;
57465;SDS011;67033;44.984;20.068;2023-03-14T06:50:29;20.13;;;7.40;;
57465;SDS011;67033;44.984;20.068;2023-03-14T06:52:55;37.00;;;27.15;;
57465;SDS011;67033;44.984;20.068;2023-03-14T06:55:21;16.38;;;8.45;;
57465;SDS011;67033;44.984;20.068;2023-03-14T06:57:47;26.08;;;9.18;;
57465;SDS011;67033;44.984;20.068;2023-03-14T07:00:13;19.70;;;8.48;;
57465;SDS011;67033;44.984;20.068;2023-03-14T07:02:39;19.83;;;7.93;;
57465;SDS011;67033;44.984;20.068;2023-03-14T07:05:06;21.20;;;7.57;;
57465;SDS011;67033;44.984;20.068;2023-03-14T07:07:32;20.15;;;7.43;;
57465;SDS011;67033;44.984;20.068;2023-03-14T07:09:58;16.27;;;7.55;;
57465;SDS011;67033;44.984;20.068;2023-03-14T07:12:24;19.73;;;8.70;;
57465;SDS011;67033;44.984;20.068;2023-03-14T07:14:49;18.13;;;9.15;;
57465;SDS011;67033;44.984;20.068;2023-03-14T07:17:15;17.45;;;8.80;;
57465;SDS011;67033;44.984;20.068;2023-03-14T07:19:41;20.75;;;9.63;;
57465;SDS011;67033;44.984;20.068;2023-03-14T07:22:07;19.40;;;9.73;;
57465;SDS011;67033;44.984;20.068;2023-03-14T07:24:33;25.75;;;11.45;;
57465;SDS011;67033;44.984;20.068;2023-03-14T07:26:59;26.42;;;11.13;;
57465;SDS011;67033;44.984;20.068;2023-03-14T07:29:25;20.20;;;10.60;;
57465;SDS011;67033;44.984;20.068;2023-03-14T07:31:50;18.13;;;10.10;;
57465;SDS011;67033;44.984;20.068;2023-03-14T07:34:16;22.70;;;10.90;;
57465;SDS011;67033;44.984;20.068;2023-03-14T07:36:42;29.08;;;14.98;;
57465;SDS011;67033;44.984;20.068;2023-03-14T07:39:08;31.05;;;15.75;;
57465;SDS011;67033;44.984;20.068;2023-03-14T07:41:34;31.42;;;14.63;;
57465;SDS011;67033;44.984;20.068;2023-03-14T07:44:00;22.38;;;12.20;;
57465;SDS011;67033;44.984;20.068;2023-03-14T07:46:27;22.33;;;10.77;;
57465;SDS011;67033;44.984;20.068;2023-03-14T07:48:53;19.02;;;11.27;;
57465;SDS011;67033;44.984;20.068;2023-03-14T07:51:19;25.75;;;10.55;;
57465;SDS011;67033;44.984;20.068;2023-03-14T07:53:45;25.60;;;11.25;;
57465;SDS011;67033;44.984;20.068;2023-03-14T07:56:11;16.17;;;10.13;;
57465;SDS011;67033;44.984;20.068;2023-03-14T07:58:37;18.45;;;10.70;;
57465;SDS011;67033;44.984;20.068;2023-03-14T08:01:03;23.38;;;10.68;;
57465;SDS011;67033;44.984;20.068;2023-03-14T08:03:29;28.98;;;11.57;;
57465;SDS011;67033;44.984;20.068;2023-03-14T08:05:55;23.70;;;10.35;;
57465;SDS011;67033;44.984;20.068;2023-03-14T08:08:21;21.92;;;9.50;;
57465;SDS011;67033;44.984;20.068;2023-03-14T08:10:47;16.45;;;8.35;;
57465;SDS011;67033;44.984;20.068;2023-03-14T08:13:13;23.38;;;8.23;;
57465;SDS011;67033;44.984;20.068;2023-03-14T08:15:40;21.52;;;10.45;;
57465;SDS011;67033;44.984;20.068;2023-03-14T08:18:06;37.65;;;17.40;;
57465;SDS011;67033;44.984;20.068;2023-03-14T08:20:32;73.65;;;31.58;;
57465;SDS011;67033;44.984;20.068;2023-03-14T08:22:59;67.80;;;27.13;;
57465;SDS011;67033;44.984;20.068;2023-03-14T08:25:26;37.45;;;13.10;;
57465;SDS011;67033;44.984;20.068;2023-03-14T08:27:53;24.48;;;8.52;;
57465;SDS011;67033;44.984;20.068;2023-03-14T08:30:19;15.32;;;6.35;;
57465;SDS011;67033;44.984;20.068;2023-03-14T08:32:46;20.85;;;7.35;;
57465;SDS011;67033;44.984;20.068;2023-03-14T08:35:12;16.05;;;6.18;;
57465;SDS011;67033;44.984;20.068;2023-03-14T08:37:39;15.05;;;7.00;;
57465;SDS011;67033;44.984;20.068;2023-03-14T08:40:06;22.55;;;6.25;;
57465;SDS011;67033;44.984;20.068;2023-03-14T08:42:35;15.02;;;5.95;;
57465;SDS011;67033;44.984;20.068;2023-03-14T08:45:02;8.88;;;5.20;;
57465;SDS011;67033;44.984;20.068;2023-03-14T08:47:28;16.58;;;5.68;;
57465;SDS011;67033;44.984;20.068;2023-03-14T08:49:55;11.93;;;5.88;;
57465;SDS011;67033;44.984;20.068;2023-03-14T08:52:21;13.80;;;6.05;;
57465;SDS011;67033;44.984;20.068;2023-03-14T08:54:47;16.27;;;5.10;;
57465;SDS011;67033;44.984;20.068;2023-03-14T08:57:14;19.17;;;4.93;;
57465;SDS011;67033;44.984;20.068;2023-03-14T08:59:40;18.25;;;4.50;;
57465;SDS011;67033;44.984;20.068;2023-03-14T09:02:08;19.15;;;4.70;;
57465;SDS011;67033;44.984;20.068;2023-03-14T09:04:34;12.77;;;5.53;;
57465;SDS011;67033;44.984;20.068;2023-03-14T09:07:00;17.10;;;5.00;;
57465;SDS011;67033;44.984;20.068;2023-03-14T09:09:26;12.90;;;4.97;;
57465;SDS011;67033;44.984;20.068;2023-03-14T09:11:53;12.48;;;4.80;;
57465;SDS011;67033;44.984;20.068;2023-03-14T09:14:19;13.15;;;5.53;;
57465;SDS011;67033;44.984;20.068;2023-03-14T09:16:45;15.40;;;5.50;;
57465;SDS011;67033;44.984;20.068;2023-03-14T09:19:11;14.20;;;4.55;;
57465;SDS011;67033;44.984;20.068;2023-03-14T09:21:37;15.05;;;4.70;;
57465;SDS011;67033;44.984;20.068;2023-03-14T09:24:04;16.52;;;5.00;;
57465;SDS011;67033;44.984;20.068;2023-03-14T09:26:30;12.70;;;5.88;;
57465;SDS011;67033;44.984;20.068;2023-03-14T09:28:56;11.20;;;4.90;;
57465;SDS011;67033;44.984;20.068;2023-03-14T09:31:23;9.93;;;4.10;;
57465;SDS011;67033;44.984;20.068;2023-03-14T09:33:49;17.42;;;4.82;;
57465;SDS011;67033;44.984;20.068;2023-03-14T09:36:15;12.00;;;4.75;;
57465;SDS011;67033;44.984;20.068;2023-03-14T09:38:41;20.85;;;5.05;;
57465;SDS011;67033;44.984;20.068;2023-03-14T09:43:55;13.38;;;4.10;;
57465;SDS011;67033;44.984;20.068;2023-03-14T09:46:24;16.88;;;5.50;;
57465;SDS011;67033;44.984;20.068;2023-03-14T09:48:50;10.35;;;3.97;;
57465;SDS011;67033;44.984;20.068;2023-03-14T09:51:17;14.68;;;4.32;;
57465;SDS011;67033;44.984;20.068;2023-03-14T09:53:45;12.02;;;4.68;;
57465;SDS011;67033;44.984;20.068;2023-03-14T09:56:13;11.70;;;3.97;;
57465;SDS011;67033;44.984;20.068;2023-03-14T09:58:41;12.05;;;4.15;;
57465;SDS011;67033;44.984;20.068;2023-03-14T10:01:08;11.05;;;4.18;;
57465;SDS011;67033;44.984;20.068;2023-03-14T10:03:36;10.10;;;4.88;;
57465;SDS011;67033;44.984;20.068;2023-03-14T10:06:08;12.63;;;4.72;;
57465;SDS011;67033;44.984;20.068;2023-03-14T10:08:38;19.23;;;5.68;;
57465;SDS011;67033;44.984;20.068;2023-03-14T10:11:17;10.07;;;4.50;;
57465;SDS011;67033;44.984;20.068;2023-03-14T10:13:53;10.27;;;5.20;;
57465;SDS011;67033;44.984;20.068;2023-03-14T10:16:29;25.27;;;6.15;;
57465;SDS011;67033;44.984;20.068;2023-03-14T10:19:07;11.80;;;4.70;;
57465;SDS011;67033;44.984;20.068;2023-03-14T10:26:53;13.25;;;4.00;;
57465;SDS011;67033;44.984;20.068;2023-03-14T10:29:27;13.95;;;4.53;;
57465;SDS011;67033;44.984;20.068;2023-03-14T10:32:02;19.15;;;5.65;;
57465;SDS011;67033;44.984;20.068;2023-03-14T10:34:36;11.13;;;4.05;;
57465;SDS011;67033;44.984;20.068;2023-03-14T10:39:51;7.00;;;3.80;;
57465;SDS011;67033;44.984;20.068;2023-03-14T10:42:20;10.07;;;4.28;;
57465;SDS011;67033;44.984;20.068;2023-03-14T10:44:53;10.45;;;3.70;;
57465;SDS011;67033;44.984;20.068;2023-03-14T10:47:22;7.68;;;3.35;;
57465;SDS011;67033;44.984;20.068;2023-03-14T10:49:49;8.75;;;3.55;;
57465;SDS011;67033;44.984;20.068;2023-03-14T10:55:11;13.35;;;3.95;;
57465;SDS011;67033;44.984;20.068;2023-03-14T10:57:38;8.43;;;2.83;;
57465;SDS011;67033;44.984;20.068;2023-03-14T11:00:05;5.03;;;2.78;;
57465;SDS011;67033;44.984;20.068;2023-03-14T11:05:33;7.27;;;3.93;;
57465;SDS011;67033;44.984;20.068;2023-03-14T11:10:45;11.27;;;3.10;;
57465;SDS011;67033;44.984;20.068;2023-03-14T11:26:36;6.82;;;2.72;;
57465;SDS011;67033;44.984;20.068;2023-03-14T11:29:38;8.10;;;2.87;;
57465;SDS011;67033;44.984;20.068;2023-03-14T11:32:11;5.68;;;2.88;;
57465;SDS011;67033;44.984;20.068;2023-03-14T11:39:54;6.88;;;2.80;;
57465;SDS011;67033;44.984;20.068;2023-03-14T11:44:57;14.80;;;3.70;;
57465;SDS011;67033;44.984;20.068;2023-03-14T11:47:26;5.88;;;2.80;;
57465;SDS011;67033;44.984;20.068;2023-03-14T11:50:04;5.00;;;2.85;;
57465;SDS011;67033;44.984;20.068;2023-03-14T11:52:50;4.68;;;2.63;;
57465;SDS011;67033;44.984;20.068;2023-03-14T11:55:28;5.88;;;2.90;;
57465;SDS011;67033;44.984;20.068;2023-03-14T11:58:33;8.43;;;3.00;;
57465;SDS011;67033;44.984;20.068;2023-03-14T12:00:55;7.63;;;2.47;;
57465;SDS011;67033;44.984;20.068;2023-03-14T12:06:09;8.48;;;3.38;;
57465;SDS011;67033;44.984;20.068;2023-03-14T12:09:04;4.68;;;3.25;;
57465;SDS011;67033;44.984;20.068;2023-03-14T12:14:27;9.98;;;3.33;;
57465;SDS011;67033;44.984;20.068;2023-03-14T12:17:05;4.82;;;3.10;;
57465;SDS011;67033;44.984;20.068;2023-03-14T12:19:43;6.25;;;2.65;;
57465;SDS011;67033;44.984;20.068;2023-03-14T12:25:00;3.97;;;2.38;;
57465;SDS011;67033;44.984;20.068;2023-03-14T12:38:51;6.65;;;2.65;;
57465;SDS011;67033;44.984;20.068;2023-03-14T12:43:40;8.10;;;2.67;;
57465;SDS011;67033;44.984;20.068;2023-03-14T12:51:45;13.05;;;3.55;;
57465;SDS011;67033;44.984;20.068;2023-03-14T12:57:42;10.43;;;3.33;;
57465;SDS011;67033;44.984;20.068;2023-03-14T13:00:20;4.78;;;2.83;;
57465;SDS011;67033;44.984;20.068;2023-03-14T13:02:47;10.48;;;2.97;;
57465;SDS011;67033;44.984;20.068;2023-03-14T13:12:54;13.73;;;4.18;;
57465;SDS011;67033;44.984;20.068;2023-03-14T13:15:41;19.10;;;3.63;;
57465;SDS011;67033;44.984;20.068;2023-03-14T13:18:15;7.18;;;3.38;;
57465;SDS011;67033;44.984;20.068;2023-03-14T13:20:50;8.13;;;3.47;;
57465;SDS011;67033;44.984;20.068;2023-03-14T13:23:24;14.18;;;4.30;;
57465;SDS011;67033;44.984;20.068;2023-03-14T13:25:52;6.10;;;3.88;;
57465;SDS011;67033;44.984;20.068;2023-03-14T13:28:18;8.68;;;3.65;;
57465;SDS011;67033;44.984;20.068;2023-03-14T13:30:45;8.52;;;4.10;;
57465;SDS011;67033;44.984;20.068;2023-03-14T13:33:17;11.50;;;3.95;;
57465;SDS011;67033;44.984;20.068;2023-03-14T13:35:46;6.80;;;3.50;;
57465;SDS011;67033;44.984;20.068;2023-03-14T13:38:17;9.13;;;4.10;;
57465;SDS011;67033;44.984;20.068;2023-03-14T13:40:45;10.20;;;3.67;;
57465;SDS011;67033;44.984;20.068;2023-03-14T13:43:23;6.05;;;3.70;;
57465;SDS011;67033;44.984;20.068;2023-03-14T13:45:51;8.90;;;4.00;;
57465;SDS011;67033;44.984;20.068;2023-03-14T13:48:18;14.73;;;4.55;;
57465;SDS011;67033;44.984;20.068;2023-03-14T13:50:46;12.07;;;4.90;;
57465;SDS011;67033;44.984;20.068;2023-03-14T13:53:17;9.75;;;4.05;;
57465;SDS011;67033;44.984;20.068;2023-03-14T13:55:44;7.72;;;3.90;;
57465;SDS011;67033;44.984;20.068;2023-03-14T13:58:25;9.38;;;3.83;;
57465;SDS011;67033;44.984;20.068;2023-03-14T14:00:53;9.52;;;3.53;;
57465;SDS011;67033;44.984;20.068;2023-03-14T14:03:22;10.13;;;4.15;;
57465;SDS011;67033;44.984;20.068;2023-03-14T14:05:48;6.95;;;3.63;;
57465;SDS011;67033;44.984;20.068;2023-03-14T14:08:14;6.50;;;3.38;;
57465;SDS011;67033;44.984;20.068;2023-03-14T14:10:40;11.43;;;3.47;;
57465;SDS011;67033;44.984;20.068;2023-03-14T14:16:28;9.40;;;3.50;;
57465;SDS011;67033;44.984;20.068;2023-03-14T14:18:54;12.88;;;4.05;;
57465;SDS011;67033;44.984;20.068;2023-03-14T14:21:22;6.22;;;3.80;;
57465;SDS011;67033;44.984;20.068;2023-03-14T14:23:49;11.27;;;4.40;;
57465;SDS011;67033;44.984;20.068;2023-03-14T14:26:16;8.45;;;4.40;;
57465;SDS011;67033;44.984;20.068;2023-03-14T14:28:44;9.43;;;4.20;;
57465;SDS011;67033;44.984;20.068;2023-03-14T14:33:41;6.07;;;4.07;;
57465;SDS011;67033;44.984;20.068;2023-03-14T14:36:15;12.15;;;4.68;;
57465;SDS011;67033;44.984;20.068;2023-03-14T14:38:57;9.27;;;3.92;;
57465;SDS011;67033;44.984;20.068;2023-03-14T14:41:33;10.77;;;4.30;;
57465;SDS011;67033;44.984;20.068;2023-03-14T14:44:01;10.98;;;5.03;;
57465;SDS011;67033;44.984;20.068;2023-03-14T14:46:30;9.90;;;5.00;;
57465;SDS011;67033;44.984;20.068;2023-03-14T14:48:58;11.57;;;5.13;;
57465;SDS011;67033;44.984;20.068;2023-03-14T14:51:34;15.05;;;8.55;;
57465;SDS011;67033;44.984;20.068;2023-03-14T14:57:01;11.93;;;4.65;;
57465;SDS011;67033;44.984;20.068;2023-03-14T14:59:29;12.35;;;7.07;;
57465;SDS011;67033;44.984;20.068;2023-03-14T15:01:59;19.20;;;6.20;;
57465;SDS011;67033;44.984;20.068;2023-03-14T15:04:27;15.10;;;4.95;;
57465;SDS011;67033;44.984;20.068;2023-03-14T15:06:56;9.90;;;5.35;;
57465;SDS011;67033;44.984;20.068;2023-03-14T15:09:22;18.88;;;8.43;;
57465;SDS011;67033;44.984;20.068;2023-03-14T15:11:48;10.98;;;5.93;;
57465;SDS011;67033;44.984;20.068;2023-03-14T15:14:14;11.35;;;5.78;;
57465;SDS011;67033;44.984;20.068;2023-03-14T15:16:40;14.15;;;6.78;;
57465;SDS011;67033;44.984;20.068;2023-03-14T15:19:10;13.48;;;6.10;;
57465;SDS011;67033;44.984;20.068;2023-03-14T15:21:40;15.32;;;6.28;;
57465;SDS011;67033;44.984;20.068;2023-03-14T15:24:07;14.23;;;6.40;;
57465;SDS011;67033;44.984;20.068;2023-03-14T15:26:34;16.95;;;6.20;;
57465;SDS011;67033;44.984;20.068;2023-03-14T15:29:00;9.10;;;5.65;;
57465;SDS011;67033;44.984;20.068;2023-03-14T15:31:26;9.18;;;5.47;;
57465;SDS011;67033;44.984;20.068;2023-03-14T15:33:51;24.25;;;7.72;;
57465;SDS011;67033;44.984;20.068;2023-03-14T15:36:24;14.35;;;6.07;;
57465;SDS011;67033;44.984;20.068;2023-03-14T15:38:52;12.25;;;5.70;;
57465;SDS011;67033;44.984;20.068;2023-03-14T15:41:19;13.45;;;5.10;;
57465;SDS011;67033;44.984;20.068;2023-03-14T15:43:46;18.90;;;6.22;;
57465;SDS011;67033;44.984;20.068;2023-03-14T15:46:12;17.25;;;6.63;;
57465;SDS011;67033;44.984;20.068;2023-03-14T15:48:39;28.70;;;11.38;;
57465;SDS011;67033;44.984;20.068;2023-03-14T15:51:05;35.00;;;16.08;;
57465;SDS011;67033;44.984;20.068;2023-03-14T15:53:31;22.42;;;10.80;;
57465;SDS011;67033;44.984;20.068;2023-03-14T15:55:57;24.88;;;10.60;;
57465;SDS011;67033;44.984;20.068;2023-03-14T15:58:23;18.38;;;10.73;;
57465;SDS011;67033;44.984;20.068;2023-03-14T16:00:49;15.73;;;7.47;;
57465;SDS011;67033;44.984;20.068;2023-03-14T16:03:15;16.85;;;7.20;;